sensor_id;sensor_type;location;lat;lon;timestamp;pressure;altitude;pressure_sealevel;temperature;humidity
49943;BME280;36011;53.362;58.948;2023-12-28T00:01:55;95253.78;;;-1.16;67.95
49943;BME280;36011;53.362;58.948;2023-12-28T00:05:00;95248.38;;;-1.10;67.50
49943;BME280;36011;53.362;58.948;2023-12-28T00:08:02;95254.22;;;-1.06;68.60
49943;BME280;36011;53.362;58.948;2023-12-28T00:11:03;95254.22;;;-1.06;67.93
49943;BME280;36011;53.362;58.948;2023-12-28T00:14:05;95251.97;;;-1.14;67.75
49943;BME280;36011;53.362;58.948;2023-12-28T00:17:06;95250.94;;;-1.10;68.38
49943;BME280;36011;53.362;58.948;2023-12-28T00:20:07;95245.00;;;-1.12;68.55
49943;BME280;36011;53.362;58.948;2023-12-28T00:23:10;95242.63;;;-0.98;67.44
49943;BME280;36011;53.362;58.948;2023-12-28T00:26:12;95253.25;;;-1.04;67.33
49943;BME280;36011;53.362;58.948;2023-12-28T00:29:16;95249.59;;;-1.00;67.61
49943;BME280;36011;53.362;58.948;2023-12-28T00:32:20;95236.50;;;-1.14;67.58
49943;BME280;36011;53.362;58.948;2023-12-28T00:35:21;95251.69;;;-1.08;67.34
49943;BME280;36011;53.362;58.948;2023-12-28T00:38:25;95257.97;;;-1.14;67.55
49943;BME280;36011;53.362;58.948;2023-12-28T00:41:33;95255.88;;;-1.24;68.29
49943;BME280;36011;53.362;58.948;2023-12-28T00:44:37;95260.19;;;-1.25;68.43
49943;BME280;36011;53.362;58.948;2023-12-28T00:47:40;95264.94;;;-1.34;68.78
49943;BME280;36011;53.362;58.948;2023-12-28T00:50:44;95261.06;;;-1.24;68.31
49943;BME280;36011;53.362;58.948;2023-12-28T00:53:45;95253.25;;;-1.04;67.93
49943;BME280;36011;53.362;58.948;2023-12-28T00:56:50;95265.22;;;-1.03;67.62
49943;BME280;36011;53.362;58.948;2023-12-28T00:59:58;95263.72;;;-1.07;67.86
49943;BME280;36011;53.362;58.948;2023-12-28T01:03:02;95256.34;;;-1.16;68.72
49943;BME280;36011;53.362;58.948;2023-12-28T01:06:09;95265.38;;;-1.06;68.18
49943;BME280;36011;53.362;58.948;2023-12-28T01:09:13;95253.38;;;-1.07;68.35
49943;BME280;36011;53.362;58.948;2023-12-28T01:12:18;95248.88;;;-1.02;68.05
49943;BME280;36011;53.362;58.948;2023-12-28T01:15:22;95240.75;;;-1.13;68.28
49943;BME280;36011;53.362;58.948;2023-12-28T01:18:29;95246.66;;;-1.11;68.61
49943;BME280;36011;53.362;58.948;2023-12-28T01:21:30;95213.75;;;-1.44;68.96
49943;BME280;36011;53.362;58.948;2023-12-28T01:24:36;95239.00;;;-1.31;68.96
49943;BME280;36011;53.362;58.948;2023-12-28T01:27:37;95236.34;;;-1.30;69.42
49943;BME280;36011;53.362;58.948;2023-12-28T01:30:40;95234.25;;;-1.41;69.84
49943;BME280;36011;53.362;58.948;2023-12-28T01:33:47;95224.44;;;-1.53;70.03
49943;BME280;36011;53.362;58.948;2023-12-28T01:36:50;95218.19;;;-1.47;70.29
49943;BME280;36011;53.362;58.948;2023-12-28T01:39:58;95227.66;;;-1.48;70.13
49943;BME280;36011;53.362;58.948;2023-12-28T01:43:05;95231.72;;;-1.61;70.80
49943;BME280;36011;53.362;58.948;2023-12-28T01:46:27;95225.31;;;-1.52;70.60
49943;BME280;36011;53.362;58.948;2023-12-28T01:49:32;95241.69;;;-1.74;71.41
49943;BME280;36011;53.362;58.948;2023-12-28T01:52:37;95248.97;;;-1.63;71.51
49943;BME280;36011;53.362;58.948;2023-12-28T01:55:38;95238.25;;;-1.54;71.38
49943;BME280;36011;53.362;58.948;2023-12-28T01:58:41;95241.38;;;-1.66;71.96
49943;BME280;36011;53.362;58.948;2023-12-28T02:01:48;95235.38;;;-1.67;72.03
49943;BME280;36011;53.362;58.948;2023-12-28T02:04:53;95236.13;;;-1.65;72.38
49943;BME280;36011;53.362;58.948;2023-12-28T02:07:55;95230.94;;;-1.84;72.63
49943;BME280;36011;53.362;58.948;2023-12-28T02:11:05;95246.78;;;-1.93;72.82
49943;BME280;36011;53.362;58.948;2023-12-28T02:14:06;95247.81;;;-1.76;73.22
49943;BME280;36011;53.362;58.948;2023-12-28T02:17:15;95248.78;;;-1.79;73.65
49943;BME280;36011;53.362;58.948;2023-12-28T02:20:18;95242.25;;;-1.67;72.79
49943;BME280;36011;53.362;58.948;2023-12-28T02:23:22;95241.84;;;-1.77;72.59
49943;BME280;36011;53.362;58.948;2023-12-28T02:26:26;95244.09;;;-1.69;72.83
49943;BME280;36011;53.362;58.948;2023-12-28T02:29:30;95245.88;;;-1.71;73.21
49943;BME280;36011;53.362;58.948;2023-12-28T02:32:44;95258.25;;;-1.79;73.63
49943;BME280;36011;53.362;58.948;2023-12-28T02:35:55;95241.31;;;-1.85;74.00
49943;BME280;36011;53.362;58.948;2023-12-28T02:39:01;95235.84;;;-1.98;74.00
49943;BME280;36011;53.362;58.948;2023-12-28T02:42:07;95226.38;;;-1.97;74.45
49943;BME280;36011;53.362;58.948;2023-12-28T02:45:11;95219.34;;;-1.94;74.51
49943;BME280;36011;53.362;58.948;2023-12-28T02:48:15;95205.03;;;-2.01;74.93
49943;BME280;36011;53.362;58.948;2023-12-28T02:51:19;95202.72;;;-2.07;75.06
49943;BME280;36011;53.362;58.948;2023-12-28T02:54:27;95195.38;;;-2.16;75.15
49943;BME280;36011;53.362;58.948;2023-12-28T02:57:33;95202.09;;;-1.92;74.62
49943;BME280;36011;53.362;58.948;2023-12-28T03:00:38;95205.31;;;-1.87;74.95
49943;BME280;36011;53.362;58.948;2023-12-28T03:03:44;95201.31;;;-1.94;74.81
49943;BME280;36011;53.362;58.948;2023-12-28T03:06:48;95186.75;;;-1.95;74.94
49943;BME280;36011;53.362;58.948;2023-12-28T03:09:52;95191.38;;;-1.83;74.09
49943;BME280;36011;53.362;58.948;2023-12-28T03:12:59;95177.56;;;-1.82;74.58
49943;BME280;36011;53.362;58.948;2023-12-28T03:16:03;95181.47;;;-1.92;74.09
49943;BME280;36011;53.362;58.948;2023-12-28T03:19:09;95174.47;;;-1.90;74.66
49943;BME280;36011;53.362;58.948;2023-12-28T03:22:11;95163.69;;;-1.98;74.69
49943;BME280;36011;53.362;58.948;2023-12-28T03:25:13;95147.88;;;-1.90;75.53
49943;BME280;36011;53.362;58.948;2023-12-28T03:28:20;95145.97;;;-2.06;75.70
49943;BME280;36011;53.362;58.948;2023-12-28T03:31:27;95149.38;;;-2.05;75.80
49943;BME280;36011;53.362;58.948;2023-12-28T03:34:35;95126.34;;;-2.29;76.50
49943;BME280;36011;53.362;58.948;2023-12-28T03:37:43;95103.84;;;-2.25;76.73
49943;BME280;36011;53.362;58.948;2023-12-28T03:40:48;95099.50;;;-2.04;75.97
49943;BME280;36011;53.362;58.948;2023-12-28T03:43:56;95099.63;;;-2.07;76.64
49943;BME280;36011;53.362;58.948;2023-12-28T03:47:02;95089.59;;;-2.13;76.94
49943;BME280;36011;53.362;58.948;2023-12-28T03:50:06;95082.38;;;-2.05;77.20
49943;BME280;36011;53.362;58.948;2023-12-28T03:53:08;95087.78;;;-2.11;77.12
49943;BME280;36011;53.362;58.948;2023-12-28T03:56:23;95092.94;;;-2.11;77.40
49943;BME280;36011;53.362;58.948;2023-12-28T03:59:27;95098.00;;;-1.89;76.27
49943;BME280;36011;53.362;58.948;2023-12-28T04:02:28;95070.13;;;-2.00;76.00
49943;BME280;36011;53.362;58.948;2023-12-28T04:05:32;95067.81;;;-2.06;76.46
49943;BME280;36011;53.362;58.948;2023-12-28T04:08:36;95089.88;;;-2.19;76.85
49943;BME280;36011;53.362;58.948;2023-12-28T04:11:40;95091.41;;;-2.15;76.46
49943;BME280;36011;53.362;58.948;2023-12-28T04:14:43;95101.31;;;-2.06;76.72
49943;BME280;36011;53.362;58.948;2023-12-28T04:17:45;95113.75;;;-2.16;77.11
49943;BME280;36011;53.362;58.948;2023-12-28T04:20:54;95119.75;;;-2.15;77.25
49943;BME280;36011;53.362;58.948;2023-12-28T04:24:00;95113.28;;;-2.05;77.22
49943;BME280;36011;53.362;58.948;2023-12-28T04:27:04;95096.44;;;-1.93;77.04
49943;BME280;36011;53.362;58.948;2023-12-28T04:30:06;95088.25;;;-1.83;76.52
49943;BME280;36011;53.362;58.948;2023-12-28T04:33:12;95095.75;;;-1.97;77.33
49943;BME280;36011;53.362;58.948;2023-12-28T04:36:18;95087.59;;;-1.88;77.47
49943;BME280;36011;53.362;58.948;2023-12-28T04:39:22;95072.72;;;-1.81;77.55
49943;BME280;36011;53.362;58.948;2023-12-28T04:42:24;95054.53;;;-1.78;77.07
49943;BME280;36011;53.362;58.948;2023-12-28T04:45:25;95056.75;;;-1.70;77.26
49943;BME280;36011;53.362;58.948;2023-12-28T04:48:33;95052.97;;;-1.63;76.60
49943;BME280;36011;53.362;58.948;2023-12-28T04:51:41;95062.81;;;-1.71;76.78
49943;BME280;36011;53.362;58.948;2023-12-28T04:54:46;95047.53;;;-1.76;77.30
49943;BME280;36011;53.362;58.948;2023-12-28T04:57:49;95034.25;;;-1.67;76.89
49943;BME280;36011;53.362;58.948;2023-12-28T05:00:54;95039.03;;;-1.59;76.83
49943;BME280;36011;53.362;58.948;2023-12-28T05:03:58;95025.31;;;-1.60;77.22
49943;BME280;36011;53.362;58.948;2023-12-28T05:07:04;95022.84;;;-1.44;76.74
49943;BME280;36011;53.362;58.948;2023-12-28T05:10:12;95024.84;;;-1.50;76.41
49943;BME280;36011;53.362;58.948;2023-12-28T05:13:16;95013.50;;;-1.46;77.40
49943;BME280;36011;53.362;58.948;2023-12-28T05:16:20;95007.66;;;-1.50;77.23
49943;BME280;36011;53.362;58.948;2023-12-28T05:19:24;94962.97;;;-1.87;77.80
49943;BME280;36011;53.362;58.948;2023-12-28T05:22:25;95027.69;;;-1.55;78.43
49943;BME280;36011;53.362;58.948;2023-12-28T05:25:29;95036.38;;;-1.39;78.30
49943;BME280;36011;53.362;58.948;2023-12-28T05:28:36;95048.97;;;-1.32;78.50
49943;BME280;36011;53.362;58.948;2023-12-28T05:31:44;95037.59;;;-1.28;78.35
49943;BME280;36011;53.362;58.948;2023-12-28T05:34:46;95024.19;;;-1.18;77.49
49943;BME280;36011;53.362;58.948;2023-12-28T05:37:48;94996.09;;;-1.06;77.87
49943;BME280;36011;53.362;58.948;2023-12-28T05:40:52;94982.78;;;-1.16;77.87
49943;BME280;36011;53.362;58.948;2023-12-28T05:44:04;95023.50;;;-1.21;77.36
49943;BME280;36011;53.362;58.948;2023-12-28T05:47:08;95033.38;;;-1.12;77.26
49943;BME280;36011;53.362;58.948;2023-12-28T05:50:17;95004.66;;;-1.23;77.56
49943;BME280;36011;53.362;58.948;2023-12-28T05:53:19;95026.53;;;-1.13;77.33
49943;BME280;36011;53.362;58.948;2023-12-28T05:56:25;95021.66;;;-1.19;77.88
49943;BME280;36011;53.362;58.948;2023-12-28T05:59:27;95015.09;;;-1.07;77.71
49943;BME280;36011;53.362;58.948;2023-12-28T06:02:31;94993.88;;;-1.14;77.89
49943;BME280;36011;53.362;58.948;2023-12-28T06:05:32;94985.25;;;-1.13;78.21
49943;BME280;36011;53.362;58.948;2023-12-28T06:08:36;94974.81;;;-0.94;77.08
49943;BME280;36011;53.362;58.948;2023-12-28T06:11:37;94950.84;;;-0.96;76.72
49943;BME280;36011;53.362;58.948;2023-12-28T06:14:39;94938.16;;;-1.01;77.78
49943;BME280;36011;53.362;58.948;2023-12-28T06:17:43;94944.53;;;-0.91;77.16
49943;BME280;36011;53.362;58.948;2023-12-28T06:20:44;94932.69;;;-0.95;77.19
49943;BME280;36011;53.362;58.948;2023-12-28T06:23:48;94938.16;;;-1.01;77.79
49943;BME280;36011;53.362;58.948;2023-12-28T06:26:50;94922.53;;;-0.98;77.97
49943;BME280;36011;53.362;58.948;2023-12-28T06:29:57;94925.56;;;-0.89;77.96
49943;BME280;36011;53.362;58.948;2023-12-28T06:33:04;94900.91;;;-0.79;77.67
49943;BME280;36011;53.362;58.948;2023-12-28T06:36:06;94898.31;;;-0.79;77.92
49943;BME280;36011;53.362;58.948;2023-12-28T06:39:11;94883.44;;;-0.74;78.48
49943;BME280;36011;53.362;58.948;2023-12-28T06:42:14;94874.13;;;-0.61;78.43
49943;BME280;36011;53.362;58.948;2023-12-28T06:45:20;94870.16;;;-0.51;78.64
49943;BME280;36011;53.362;58.948;2023-12-28T06:48:35;94859.31;;;-0.41;78.35
49943;BME280;36011;53.362;58.948;2023-12-28T06:51:36;94869.81;;;-0.29;78.27
49943;BME280;36011;53.362;58.948;2023-12-28T06:54:40;94862.06;;;-0.29;78.25
49943;BME280;36011;53.362;58.948;2023-12-28T06:57:44;94866.66;;;-0.18;78.34
49943;BME280;36011;53.362;58.948;2023-12-28T07:00:51;94858.72;;;-0.15;78.20
49943;BME280;36011;53.362;58.948;2023-12-28T07:03:55;94842.88;;;-0.09;78.25
49943;BME280;36011;53.362;58.948;2023-12-28T07:06:59;94831.44;;;-0.05;78.11
49943;BME280;36011;53.362;58.948;2023-12-28T07:10:04;94824.44;;;-0.03;77.85
49943;BME280;36011;53.362;58.948;2023-12-28T07:13:06;94835.34;;;0.03;78.44
49943;BME280;36011;53.362;58.948;2023-12-28T07:16:10;94827.50;;;0.04;77.57
49943;BME280;36011;53.362;58.948;2023-12-28T07:19:14;94812.00;;;0.04;78.25
49943;BME280;36011;53.362;58.948;2023-12-28T07:22:21;94784.56;;;0.02;77.91
49943;BME280;36011;53.362;58.948;2023-12-28T07:25:30;94776.22;;;-0.04;78.13
49943;BME280;36011;53.362;58.948;2023-12-28T07:28:32;94753.97;;;-0.06;78.00
49943;BME280;36011;53.362;58.948;2023-12-28T07:31:38;94740.72;;;0.00;78.22
49943;BME280;36011;53.362;58.948;2023-12-28T07:34:45;94736.56;;;-0.03;77.70
49943;BME280;36011;53.362;58.948;2023-12-28T07:37:52;94702.19;;;-0.05;77.49
49943;BME280;36011;53.362;58.948;2023-12-28T07:40:59;94690.84;;;-0.02;77.95
49943;BME280;36011;53.362;58.948;2023-12-28T07:44:06;94701.25;;;-0.04;77.31
49943;BME280;36011;53.362;58.948;2023-12-28T07:47:09;94698.84;;;-0.07;78.23
49943;BME280;36011;53.362;58.948;2023-12-28T07:50:15;94665.53;;;-0.11;77.96
49943;BME280;36011;53.362;58.948;2023-12-28T07:53:28;94650.66;;;-0.08;77.83
49943;BME280;36011;53.362;58.948;2023-12-28T07:56:36;94660.81;;;-0.05;77.81
49943;BME280;36011;53.362;58.948;2023-12-28T07:59:40;94676.16;;;-0.02;77.77
49943;BME280;36011;53.362;58.948;2023-12-28T08:02:41;94671.06;;;-0.03;77.68
49943;BME280;36011;53.362;58.948;2023-12-28T08:05:45;94657.13;;;-0.01;77.35
49943;BME280;36011;53.362;58.948;2023-12-28T08:08:46;94645.31;;;-0.05;77.72
49943;BME280;36011;53.362;58.948;2023-12-28T08:11:48;94662.84;;;-0.10;77.28
49943;BME280;36011;53.362;58.948;2023-12-28T08:14:59;94656.03;;;-0.11;77.70
49943;BME280;36011;53.362;58.948;2023-12-28T08:18:08;94637.81;;;-0.09;77.67
49943;BME280;36011;53.362;58.948;2023-12-28T08:21:12;94626.09;;;-0.15;77.69
49943;BME280;36011;53.362;58.948;2023-12-28T08:24:14;94624.63;;;-0.05;77.91
49943;BME280;36011;53.362;58.948;2023-12-28T08:27:20;94632.94;;;0.01;77.98
49943;BME280;36011;53.362;58.948;2023-12-28T08:30:24;94634.78;;;-0.02;77.36
49943;BME280;36011;53.362;58.948;2023-12-28T08:33:28;94624.44;;;-0.02;77.63
49943;BME280;36011;53.362;58.948;2023-12-28T08:36:38;94610.41;;;0.03;77.93
49943;BME280;36011;53.362;58.948;2023-12-28T08:39:42;94592.41;;;0.01;77.66
49943;BME280;36011;53.362;58.948;2023-12-28T08:42:45;94567.38;;;0.02;78.22
49943;BME280;36011;53.362;58.948;2023-12-28T08:45:49;94576.91;;;0.01;77.89
49943;BME280;36011;53.362;58.948;2023-12-28T08:48:51;94574.50;;;-0.02;77.96
49943;BME280;36011;53.362;58.948;2023-12-28T08:51:57;94560.56;;;0.01;77.63
49943;BME280;36011;53.362;58.948;2023-12-28T08:55:12;94567.38;;;0.02;78.00
49943;BME280;36011;53.362;58.948;2023-12-28T08:58:18;94551.22;;;-0.02;78.14
49943;BME280;36011;53.362;58.948;2023-12-28T09:01:20;94545.59;;;-0.09;77.34
49943;BME280;36011;53.362;58.948;2023-12-28T09:04:27;94533.41;;;-0.07;78.06
49943;BME280;36011;53.362;58.948;2023-12-28T09:07:31;94517.72;;;-0.04;77.57
49943;BME280;36011;53.362;58.948;2023-12-28T09:10:32;94498.41;;;-0.12;77.71
49943;BME280;36011;53.362;58.948;2023-12-28T09:13:39;94495.00;;;-0.13;78.05
49943;BME280;36011;53.362;58.948;2023-12-28T09:16:46;94476.84;;;-0.11;77.43
49943;BME280;36011;53.362;58.948;2023-12-28T09:19:47;94460.97;;;-0.19;77.98
49943;BME280;36011;53.362;58.948;2023-12-28T09:22:49;94462.81;;;-0.21;77.42
49943;BME280;36011;53.362;58.948;2023-12-28T09:26:01;94460.84;;;-0.18;77.71
49943;BME280;36011;53.362;58.948;2023-12-28T09:29:04;94451.25;;;-0.16;77.69
49943;BME280;36011;53.362;58.948;2023-12-28T09:32:05;94425.41;;;-0.16;77.71
49943;BME280;36011;53.362;58.948;2023-12-28T09:35:10;94415.06;;;-0.16;77.54
49943;BME280;36011;53.362;58.948;2023-12-28T09:38:17;94400.34;;;-0.28;77.75
49943;BME280;36011;53.362;58.948;2023-12-28T09:41:23;94388.59;;;-0.19;77.94
49943;BME280;36011;53.362;58.948;2023-12-28T09:44:32;94376.59;;;-0.20;77.66
49943;BME280;36011;53.362;58.948;2023-12-28T09:47:43;94358.59;;;-0.22;77.68
49943;BME280;36011;53.362;58.948;2023-12-28T09:50:52;94360.06;;;-0.18;77.27
49943;BME280;36011;53.362;58.948;2023-12-28T09:53:58;94344.56;;;-0.18;77.53
49943;BME280;36011;53.362;58.948;2023-12-28T09:57:02;94340.31;;;-0.19;77.83
49943;BME280;36011;53.362;58.948;2023-12-28T10:00:05;94318.09;;;-0.21;78.23
49943;BME280;36011;53.362;58.948;2023-12-28T10:03:07;94296.38;;;-0.19;77.60
49943;BME280;36011;53.362;58.948;2023-12-28T10:06:11;94275.72;;;-0.19;77.43
49943;BME280;36011;53.362;58.948;2023-12-28T10:09:12;94250.47;;;-0.28;77.70
49943;BME280;36011;53.362;58.948;2023-12-28T10:12:19;94224.50;;;-0.27;77.98
49943;BME280;36011;53.362;58.948;2023-12-28T10:15:23;94183.28;;;-0.28;77.83
49943;BME280;36011;53.362;58.948;2023-12-28T10:18:31;94189.47;;;-0.31;77.28
49943;BME280;36011;53.362;58.948;2023-12-28T10:21:33;94239.06;;;-0.38;78.06
49943;BME280;36011;53.362;58.948;2023-12-28T10:24:43;94251.03;;;-0.37;78.07
49943;BME280;36011;53.362;58.948;2023-12-28T10:27:50;94237.22;;;-0.36;78.08
49943;BME280;36011;53.362;58.948;2023-12-28T10:31:00;94238.50;;;-0.43;77.76
49943;BME280;36011;53.362;58.948;2023-12-28T10:34:05;94237.06;;;-0.48;78.30
49943;BME280;36011;53.362;58.948;2023-12-28T10:37:10;94231.16;;;-0.50;78.20
49943;BME280;36011;53.362;58.948;2023-12-28T10:40:15;94214.03;;;-0.51;78.05
49943;BME280;36011;53.362;58.948;2023-12-28T10:43:29;94212.16;;;-0.49;78.14
49943;BME280;36011;53.362;58.948;2023-12-28T10:46:48;94221.97;;;-0.54;78.17
49943;BME280;36011;53.362;58.948;2023-12-28T10:49:55;94210.16;;;-0.58;78.29
49943;BME280;36011;53.362;58.948;2023-12-28T10:53:28;94202.59;;;-0.61;77.77
49943;BME280;36011;53.362;58.948;2023-12-28T10:56:42;94184.63;;;-0.62;78.47
49943;BME280;36011;53.362;58.948;2023-12-28T11:03:06;94168.69;;;-0.69;78.43
49943;BME280;36011;53.362;58.948;2023-12-28T11:06:13;94168.69;;;-0.69;78.43
49943;BME280;36011;53.362;58.948;2023-12-28T11:09:22;94184.59;;;-0.75;78.72
49943;BME280;36011;53.362;58.948;2023-12-28T11:12:28;94159.38;;;-0.72;78.01
49943;BME280;36011;53.362;58.948;2023-12-28T11:15:30;94120.78;;;-0.73;78.24
49943;BME280;36011;53.362;58.948;2023-12-28T11:18:33;94115.97;;;-0.79;78.94
49943;BME280;36011;53.362;58.948;2023-12-28T11:21:35;94141.09;;;-0.81;78.96
49943;BME280;36011;53.362;58.948;2023-12-28T11:24:36;94131.06;;;-0.86;78.34
49943;BME280;36011;53.362;58.948;2023-12-28T11:27:38;94131.88;;;-0.85;79.01
49943;BME280;36011;53.362;58.948;2023-12-28T11:30:42;94139.09;;;-0.91;78.87
49943;BME280;36011;53.362;58.948;2023-12-28T11:33:50;94127.09;;;-0.92;79.42
49943;BME280;36011;53.362;58.948;2023-12-28T11:36:56;94134.44;;;-0.85;78.97
49943;BME280;36011;53.362;58.948;2023-12-28T11:40:12;94121.25;;;-0.81;79.16
49943;BME280;36011;53.362;58.948;2023-12-28T11:43:22;94112.91;;;-0.84;79.23
49943;BME280;36011;53.362;58.948;2023-12-28T11:46:25;94114.53;;;-0.83;79.08
49943;BME280;36011;53.362;58.948;2023-12-28T11:49:27;94096.94;;;-0.91;79.24
49943;BME280;36011;53.362;58.948;2023-12-28T11:52:36;94092.81;;;-0.94;78.92
49943;BME280;36011;53.362;58.948;2023-12-28T11:55:37;94096.75;;;-0.88;79.18
49943;BME280;36011;53.362;58.948;2023-12-28T11:58:38;94089.13;;;-0.89;79.34
49943;BME280;36011;53.362;58.948;2023-12-28T12:01:40;94075.41;;;-0.90;78.96
49943;BME280;36011;53.362;58.948;2023-12-28T12:04:43;94076.31;;;-0.91;79.55
49943;BME280;36011;53.362;58.948;2023-12-28T12:07:50;94072.00;;;-0.91;79.67
49943;BME280;36011;53.362;58.948;2023-12-28T12:11:05;94059.78;;;-0.88;79.53
49943;BME280;36011;53.362;58.948;2023-12-28T12:14:10;94044.50;;;-0.92;79.49
49943;BME280;36011;53.362;58.948;2023-12-28T12:17:16;94027.19;;;-0.89;79.69
49943;BME280;36011;53.362;58.948;2023-12-28T12:20:19;94029.03;;;-0.92;79.84
49943;BME280;36011;53.362;58.948;2023-12-28T12:23:20;94031.59;;;-0.92;80.04
49943;BME280;36011;53.362;58.948;2023-12-28T12:26:22;94032.34;;;-0.89;79.97
49943;BME280;36011;53.362;58.948;2023-12-28T12:29:29;94022.00;;;-0.89;80.29
49943;BME280;36011;53.362;58.948;2023-12-28T12:32:35;93997.63;;;-0.85;79.91
49943;BME280;36011;53.362;58.948;2023-12-28T12:35:40;93987.09;;;-0.82;80.73
49943;BME280;36011;53.362;58.948;2023-12-28T12:38:47;93977.84;;;-0.85;79.88
49943;BME280;36011;53.362;58.948;2023-12-28T12:41:48;93971.53;;;-0.81;80.45
49943;BME280;36011;53.362;58.948;2023-12-28T12:44:54;93942.19;;;-0.80;80.37
49943;BME280;36011;53.362;58.948;2023-12-28T12:48:00;93931.38;;;-0.85;79.65
49943;BME280;36011;53.362;58.948;2023-12-28T12:51:02;93913.19;;;-0.83;79.75
49943;BME280;36011;53.362;58.948;2023-12-28T12:54:04;93908.75;;;-0.81;79.62
49943;BME280;36011;53.362;58.948;2023-12-28T12:57:05;93927.03;;;-0.84;80.19
49943;BME280;36011;53.362;58.948;2023-12-28T13:00:09;93911.75;;;-0.87;79.84
49943;BME280;36011;53.362;58.948;2023-12-28T13:03:16;93925.16;;;-0.82;80.35
49943;BME280;36011;53.362;58.948;2023-12-28T13:06:21;93919.97;;;-0.82;80.29
49943;BME280;36011;53.362;58.948;2023-12-28T13:09:24;93920.72;;;-0.80;80.50
49943;BME280;36011;53.362;58.948;2023-12-28T13:12:28;93928.47;;;-0.80;80.26
49943;BME280;36011;53.362;58.948;2023-12-28T13:15:34;93912.75;;;-0.77;80.39
49943;BME280;36011;53.362;58.948;2023-12-28T13:18:40;93903.16;;;-0.75;79.87
49943;BME280;36011;53.362;58.948;2023-12-28T13:21:49;93909.28;;;-0.76;79.98
49943;BME280;36011;53.362;58.948;2023-12-28T13:24:51;93912.13;;;-0.68;79.38
49943;BME280;36011;53.362;58.948;2023-12-28T13:27:54;93927.63;;;-0.68;79.97
49943;BME280;36011;53.362;58.948;2023-12-28T13:30:58;93889.44;;;-1.01;80.29
49943;BME280;36011;53.362;58.948;2023-12-28T13:33:59;93944.78;;;-0.67;80.77
49943;BME280;36011;53.362;58.948;2023-12-28T13:37:03;93931.34;;;-0.72;80.37
49943;BME280;36011;53.362;58.948;2023-12-28T13:40:05;93916.16;;;-0.64;80.27
49943;BME280;36011;53.362;58.948;2023-12-28T13:43:10;93904.69;;;-0.60;79.93
49943;BME280;36011;53.362;58.948;2023-12-28T13:46:16;93899.31;;;-0.57;80.38
49943;BME280;36011;53.362;58.948;2023-12-28T13:49:21;93897.44;;;-0.55;80.71
49943;BME280;36011;53.362;58.948;2023-12-28T13:52:25;93893.75;;;-0.51;80.93
49943;BME280;36011;53.362;58.948;2023-12-28T13:55:30;93885.78;;;-0.48;80.95
49943;BME280;36011;53.362;58.948;2023-12-28T13:58:33;93896.63;;;-0.42;81.02
49943;BME280;36011;53.362;58.948;2023-12-28T14:01:35;93883.50;;;-0.39;80.68
49943;BME280;36011;53.362;58.948;2023-12-28T14:04:38;93868.00;;;-0.39;80.57
49943;BME280;36011;53.362;58.948;2023-12-28T14:07:42;93871.50;;;-0.40;81.23
49943;BME280;36011;53.362;58.948;2023-12-28T14:10:54;93884.09;;;-0.36;80.57
49943;BME280;36011;53.362;58.948;2023-12-28T14:13:58;93877.47;;;-0.40;80.92
49943;BME280;36011;53.362;58.948;2023-12-28T14:17:00;93872.00;;;-0.35;80.51
49943;BME280;36011;53.362;58.948;2023-12-28T14:20:23;93792.31;;;-0.65;81.05
49943;BME280;36011;53.362;58.948;2023-12-28T14:23:28;93831.38;;;-0.33;80.46
49943;BME280;36011;53.362;58.948;2023-12-28T14:26:32;93823.63;;;-0.33;80.74
49943;BME280;36011;53.362;58.948;2023-12-28T14:29:39;93833.97;;;-0.33;81.41
49943;BME280;36011;53.362;58.948;2023-12-28T14:32:41;93835.09;;;-0.37;81.16
49943;BME280;36011;53.362;58.948;2023-12-28T14:35:43;93844.41;;;-0.35;81.09
49943;BME280;36011;53.362;58.948;2023-12-28T14:38:47;93851.34;;;-0.35;80.79
49943;BME280;36011;53.362;58.948;2023-12-28T14:41:50;93829.47;;;-0.42;81.07
49943;BME280;36011;53.362;58.948;2023-12-28T14:44:57;93804.69;;;-0.58;80.71
49943;BME280;36011;53.362;58.948;2023-12-28T14:48:04;93830.06;;;-0.39;80.98
49943;BME280;36011;53.362;58.948;2023-12-28T14:51:08;93827.78;;;-0.43;80.43
49943;BME280;36011;53.362;58.948;2023-12-28T14:54:14;93845.16;;;-0.46;79.75
49943;BME280;36011;53.362;58.948;2023-12-28T14:57:17;93826.59;;;-0.51;80.68
49943;BME280;36011;53.362;58.948;2023-12-28T15:00:21;93829.06;;;-0.49;80.68
49943;BME280;36011;53.362;58.948;2023-12-28T15:03:22;93818.13;;;-0.53;80.42
49943;BME280;36011;53.362;58.948;2023-12-28T15:06:26;93827.00;;;-0.57;80.02
49943;BME280;36011;53.362;58.948;2023-12-28T15:09:36;93834.25;;;-0.62;80.35
49943;BME280;36011;53.362;58.948;2023-12-28T15:12:48;93835.31;;;-0.64;80.58
49943;BME280;36011;53.362;58.948;2023-12-28T15:15:51;93825.78;;;-0.64;79.99
49943;BME280;36011;53.362;58.948;2023-12-28T15:18:54;93808.28;;;-0.84;80.18
49943;BME280;36011;53.362;58.948;2023-12-28T15:21:59;93826.53;;;-0.75;79.57
49943;BME280;36011;53.362;58.948;2023-12-28T15:25:03;93828.91;;;-0.72;79.95
49943;BME280;36011;53.362;58.948;2023-12-28T15:28:10;93806.38;;;-0.70;79.85
49943;BME280;36011;53.362;58.948;2023-12-28T15:31:18;93792.97;;;-0.75;80.00
49943;BME280;36011;53.362;58.948;2023-12-28T15:34:24;93795.25;;;-0.70;78.96
49943;BME280;36011;53.362;58.948;2023-12-28T15:37:28;93795.84;;;-0.79;79.00
49943;BME280;36011;53.362;58.948;2023-12-28T15:40:29;93801.25;;;-0.82;79.01
49943;BME280;36011;53.362;58.948;2023-12-28T15:43:33;93809.53;;;-0.90;79.36
49943;BME280;36011;53.362;58.948;2023-12-28T15:46:37;93816.66;;;-0.94;79.83
49943;BME280;36011;53.362;58.948;2023-12-28T15:49:45;93812.41;;;-0.95;79.83
49943;BME280;36011;53.362;58.948;2023-12-28T15:52:47;93814.69;;;-0.90;79.81
49943;BME280;36011;53.362;58.948;2023-12-28T15:55:49;93813.88;;;-0.91;79.02
49943;BME280;36011;53.362;58.948;2023-12-28T15:58:52;93797.44;;;-0.89;79.44
49943;BME280;36011;53.362;58.948;2023-12-28T16:01:58;93789.72;;;-0.89;79.38
49943;BME280;36011;53.362;58.948;2023-12-28T16:05:03;93784.84;;;-0.94;79.86
49943;BME280;36011;53.362;58.948;2023-12-28T16:08:05;93770.31;;;-1.08;79.23
49943;BME280;36011;53.362;58.948;2023-12-28T16:11:11;93788.59;;;-0.98;79.63